Woodlake, California
Current Conditions -  °F | °C
As of 8:55 PM on Thursday 30 Oct 2014 (Local Time) from KVIS Reporting Station
NA  
Wind Chill: 19°   Ceiling: NA
Heat Index: 19°   Visibility: 10mi
Dew Point:   Wind: 0mph
Humidity: 43%   Direction: NA
Pressure: 29.9"   Gusts: NA
Location:  36.42°N, 119.09°W
Report Text: KVIS 310355Z 00000KT 10SM 19/06 A2990 RMK AO1
Loading
Personal Weather Stations






























Interactive Weather Map
Tropical Storm Tracking
New forecast layout! Learn more

10-Day Weather Forecast

Advertisements
Track Severe Weather on mobile